createdAt,value
2016-09-10T00:00:53.191Z,966.5
2016-09-10T00:01:53.146Z,966.49
2016-09-10T00:02:53.113Z,966.52
2016-09-10T00:03:53.081Z,966.52
2016-09-10T00:04:53.050Z,966.54
2016-09-10T00:05:53.020Z,966.57
2016-09-10T00:06:52.984Z,966.56
2016-09-10T00:07:52.953Z,966.55
2016-09-10T00:08:52.922Z,966.54
2016-09-10T00:09:52.889Z,966.56
2016-09-10T00:10:52.878Z,966.55
2016-09-10T00:11:52.827Z,966.57
2016-09-10T00:12:52.796Z,966.56
2016-09-10T00:13:52.767Z,966.54
2016-09-10T00:14:52.738Z,966.58
2016-09-10T00:15:52.699Z,966.58
2016-09-10T00:16:52.664Z,966.6
2016-09-10T00:17:52.652Z,966.59
2016-09-10T00:18:52.599Z,966.59
2016-09-10T00:19:52.569Z,966.58
2016-09-10T00:20:52.537Z,966.56
2016-09-10T00:21:52.504Z,966.53
2016-09-10T00:22:52.482Z,966.55
2016-09-10T00:23:52.440Z,966.56
2016-09-10T00:24:52.408Z,966.53
2016-09-10T00:25:52.376Z,966.58
2016-09-10T00:26:52.344Z,966.59
2016-09-10T00:27:52.326Z,966.58
2016-09-10T00:28:52.279Z,966.55
2016-09-10T00:29:52.248Z,966.57
2016-09-10T00:30:52.216Z,966.59
2016-09-10T00:31:52.185Z,966.54
2016-09-10T00:32:52.150Z,966.58
2016-09-10T00:33:52.121Z,966.61
2016-09-10T00:34:52.223Z,966.59
2016-09-10T00:35:52.067Z,966.62
2016-09-10T00:36:52.021Z,966.61
2016-09-10T00:37:51.998Z,966.61
2016-09-10T00:38:51.965Z,966.61
2016-09-10T00:39:51.927Z,966.61
2016-09-10T00:40:51.900Z,966.59
2016-09-10T00:41:51.868Z,966.63
2016-09-10T00:42:51.828Z,966.61
2016-09-10T00:43:51.796Z,966.67
2016-09-10T00:44:51.769Z,966.68
2016-09-10T00:45:51.737Z,966.67
2016-09-10T00:46:51.701Z,966.63
2016-09-10T00:47:51.667Z,966.63
2016-09-10T00:48:51.635Z,966.63
2016-09-10T00:49:51.611Z,966.67
2016-09-10T00:50:51.570Z,966.64
2016-09-10T00:51:51.574Z,966.64
2016-09-10T00:52:51.506Z,966.67
2016-09-10T00:53:51.484Z,966.61
2016-09-10T00:54:51.441Z,966.65
2016-09-10T00:55:51.410Z,966.63
2016-09-10T00:56:51.385Z,966.64
2016-09-10T00:57:51.344Z,966.63
2016-09-10T00:58:51.310Z,966.69
2016-09-10T00:59:51.281Z,966.67
2016-09-10T01:00:51.251Z,966.67
2016-09-10T01:01:51.216Z,966.65
2016-09-10T01:02:51.186Z,966.65
2016-09-10T01:03:51.231Z,966.64
2016-09-10T01:04:51.120Z,966.64
2016-09-10T01:05:51.088Z,966.67
2016-09-10T01:06:51.077Z,966.66
2016-09-10T01:07:51.049Z,966.68
2016-09-10T01:08:50.989Z,966.65
2016-09-10T01:09:50.957Z,966.65
2016-09-10T01:10:50.967Z,966.67
2016-09-10T01:11:50.893Z,966.66
2016-09-10T01:12:50.860Z,966.66
2016-09-10T01:13:50.827Z,966.66
2016-09-10T01:14:50.798Z,966.66
2016-09-10T01:15:50.765Z,966.69
2016-09-10T01:16:50.731Z,966.65
2016-09-10T01:17:50.697Z,966.69
2016-09-10T01:18:50.667Z,966.67
2016-09-10T01:19:50.640Z,966.67
2016-09-10T01:20:50.640Z,966.69
2016-09-10T01:21:50.568Z,966.68
2016-09-10T01:22:50.538Z,966.69
2016-09-10T01:23:50.532Z,966.71
2016-09-10T01:24:50.474Z,966.7
2016-09-10T01:25:50.440Z,966.67
2016-09-10T01:26:50.405Z,966.68
2016-09-10T01:27:50.383Z,966.66
2016-09-10T01:28:50.340Z,966.67
2016-09-10T01:29:50.319Z,966.66
2016-09-10T01:30:50.276Z,966.65
2016-09-10T01:31:50.253Z,966.65
2016-09-10T01:32:50.216Z,966.63
2016-09-10T01:33:50.184Z,966.65
2016-09-10T01:34:50.149Z,966.63
2016-09-10T01:35:50.113Z,966.6
2016-09-10T01:36:50.089Z,966.61
2016-09-10T01:37:50.053Z,966.61
2016-09-10T01:38:50.031Z,966.6
2016-09-10T01:39:49.989Z,966.61
2016-09-10T01:40:49.951Z,966.58
2016-09-10T01:41:49.942Z,966.6
2016-09-10T01:42:49.889Z,966.61
2016-09-10T01:43:49.854Z,966.61
2016-09-10T01:44:49.823Z,966.59
2016-09-10T01:45:49.808Z,966.63
2016-09-10T01:46:49.765Z,966.58
2016-09-10T01:47:49.725Z,966.61
2016-09-10T01:48:49.691Z,966.57
2016-09-10T01:49:49.665Z,966.53
2016-09-10T01:50:49.628Z,966.57
2016-09-10T01:51:49.595Z,966.6
2016-09-10T01:52:49.568Z,966.62
2016-09-10T01:53:49.535Z,966.61
2016-09-10T01:54:49.667Z,966.61
2016-09-10T01:55:49.466Z,966.58
2016-09-10T01:56:49.435Z,966.61
2016-09-10T01:57:49.403Z,966.58
2016-09-10T01:58:49.374Z,966.59
2016-09-10T01:59:49.334Z,966.61
2016-09-10T02:00:49.309Z,966.55
2016-09-10T02:01:49.275Z,966.61
2016-09-10T02:02:49.373Z,966.6
2016-09-10T02:03:49.215Z,966.58
2016-09-10T02:04:49.192Z,966.61
2016-09-10T02:05:49.144Z,966.61
2016-09-10T02:06:49.239Z,966.62
2016-09-10T02:07:49.080Z,966.62
2016-09-10T02:08:49.049Z,966.65
2016-09-10T02:09:49.038Z,966.65
2016-09-10T02:10:48.978Z,966.68
2016-09-10T02:11:49.478Z,966.71
2016-09-10T02:12:48.927Z,966.71
2016-09-10T02:13:48.884Z,966.72
2016-09-10T02:14:48.846Z,966.74
2016-09-10T02:15:48.814Z,966.7
2016-09-10T02:16:48.780Z,966.75
2016-09-10T02:17:48.761Z,966.73
2016-09-10T02:18:48.717Z,966.74
2016-09-10T02:19:48.683Z,966.77
2016-09-10T02:20:48.651Z,966.76
2016-09-10T02:21:48.631Z,966.76
2016-09-10T02:22:48.591Z,966.75
2016-09-10T02:23:48.554Z,966.78
2016-09-10T02:24:48.523Z,966.76
2016-09-10T02:25:48.486Z,966.78
2016-09-10T02:26:48.457Z,966.77
2016-09-10T02:27:48.424Z,966.83
2016-09-10T02:28:48.390Z,966.8
2016-09-10T02:29:48.428Z,966.81
2016-09-10T02:30:48.330Z,966.81
2016-09-10T02:31:48.295Z,966.79
2016-09-10T02:32:48.263Z,966.83
2016-09-10T02:33:48.227Z,966.8
2016-09-10T02:34:48.192Z,966.8
2016-09-10T02:35:48.159Z,966.81
2016-09-10T02:36:48.126Z,966.8
2016-09-10T02:37:48.133Z,966.8
2016-09-10T02:38:48.061Z,966.81
2016-09-10T02:39:48.032Z,966.83
2016-09-10T02:40:48.000Z,966.79
2016-09-10T02:41:47.983Z,966.84
2016-09-10T02:42:47.937Z,966.77
2016-09-10T02:43:47.904Z,966.8
2016-09-10T02:44:47.873Z,966.78
2016-09-10T02:45:47.841Z,966.81
2016-09-10T02:46:47.800Z,966.81
2016-09-10T02:47:47.771Z,966.79
2016-09-10T02:48:47.735Z,966.79
2016-09-10T02:49:47.707Z,966.77
2016-09-10T02:50:47.682Z,966.75
2016-09-10T02:51:47.638Z,966.76
2016-09-10T02:52:47.604Z,966.72
2016-09-10T02:53:47.599Z,966.73
2016-09-10T02:54:47.541Z,966.78
2016-09-10T02:55:47.505Z,966.75
2016-09-10T02:56:47.475Z,966.76
2016-09-10T02:57:47.440Z,966.81
2016-09-10T02:58:47.407Z,966.8
2016-09-10T02:59:47.377Z,966.79
2016-09-10T03:00:47.345Z,966.79
2016-09-10T03:01:47.310Z,966.73
2016-09-10T03:02:47.278Z,966.76
2016-09-10T03:03:47.242Z,966.73
2016-09-10T03:04:47.210Z,966.73
2016-09-10T03:05:47.177Z,966.72
2016-09-10T03:06:47.147Z,966.75
2016-09-10T03:07:47.115Z,966.72
2016-09-10T03:08:47.090Z,966.74
2016-09-10T03:09:47.056Z,966.71
2016-09-10T03:10:47.025Z,966.72
2016-09-10T03:11:46.981Z,966.72
2016-09-10T03:12:46.952Z,966.73
2016-09-10T03:13:46.919Z,966.76
2016-09-10T03:14:46.885Z,966.72
2016-09-10T03:15:46.862Z,966.77
2016-09-10T03:16:46.816Z,966.78
2016-09-10T03:17:46.790Z,966.78
2016-09-10T03:18:46.764Z,966.79
2016-09-10T03:19:46.722Z,966.78
2016-09-10T03:20:46.686Z,966.79
2016-09-10T03:21:46.657Z,966.84
2016-09-10T03:22:46.625Z,966.86
2016-09-10T03:23:46.591Z,966.83
2016-09-10T03:24:46.576Z,966.85
2016-09-10T03:25:46.524Z,966.82
2016-09-10T03:26:46.499Z,966.88
2016-09-10T03:27:46.464Z,966.86
2016-09-10T03:28:46.425Z,966.88
2016-09-10T03:29:46.393Z,966.86
2016-09-10T03:30:46.361Z,966.86
2016-09-10T03:31:46.325Z,966.88
2016-09-10T03:32:46.294Z,966.88
2016-09-10T03:33:46.261Z,966.85
2016-09-10T03:34:46.237Z,966.86
2016-09-10T03:35:46.207Z,966.86
2016-09-10T03:36:46.161Z,966.81
2016-09-10T03:37:46.132Z,966.86
2016-09-10T03:38:46.097Z,966.88
2016-09-10T03:39:46.068Z,966.86
2016-09-10T03:40:46.029Z,966.87
2016-09-10T03:41:45.997Z,966.85
2016-09-10T03:42:45.965Z,966.83
2016-09-10T03:43:45.931Z,966.86
2016-09-10T03:44:45.904Z,966.85
2016-09-10T03:45:45.868Z,966.81
2016-09-10T03:46:45.833Z,966.83
2016-09-10T03:47:45.802Z,966.86
2016-09-10T03:48:45.782Z,966.9
2016-09-10T03:49:45.734Z,966.85
2016-09-10T03:50:45.717Z,966.87
2016-09-10T03:51:45.671Z,966.91
2016-09-10T03:52:45.649Z,966.87
2016-09-10T03:53:45.606Z,966.86
2016-09-10T03:54:45.585Z,966.85
2016-09-10T03:55:45.540Z,966.86
2016-09-10T03:56:45.507Z,966.88
2016-09-10T03:57:45.474Z,966.86
2016-09-10T03:58:45.442Z,966.88
2016-09-10T03:59:45.422Z,966.94
2016-09-10T04:00:45.375Z,966.92
2016-09-10T04:01:45.342Z,966.93
2016-09-10T04:02:45.310Z,966.92
2016-09-10T04:03:45.273Z,966.94
2016-09-10T04:04:45.240Z,966.94
2016-09-10T04:05:45.212Z,966.95
2016-09-10T04:06:45.179Z,966.95
2016-09-10T04:07:45.144Z,966.95
2016-09-10T04:08:45.109Z,966.97
2016-09-10T04:09:45.089Z,966.99
2016-09-10T04:10:45.045Z,966.98
2016-09-10T04:11:45.048Z,967
2016-09-10T04:12:44.979Z,966.97
2016-09-10T04:13:44.945Z,967.01
2016-09-10T04:14:44.914Z,967
2016-09-10T04:15:44.887Z,966.99
2016-09-10T04:16:44.986Z,966.99
2016-09-10T04:17:44.824Z,966.99
2016-09-10T04:18:44.786Z,966.95
2016-09-10T04:19:44.751Z,966.98
2016-09-10T04:20:44.813Z,966.98
2016-09-10T04:21:44.685Z,966.96
2016-09-10T04:22:44.655Z,966.92
2016-09-10T04:23:44.632Z,966.94
2016-09-10T04:24:44.586Z,966.96
2016-09-10T04:25:44.652Z,966.96
2016-09-10T04:26:44.517Z,966.91
2016-09-10T04:27:44.484Z,966.99
2016-09-10T04:28:44.498Z,966.96
2016-09-10T04:29:44.424Z,966.98
2016-09-10T04:30:44.395Z,967
2016-09-10T04:31:44.354Z,966.99
2016-09-10T04:32:44.326Z,967.01
2016-09-10T04:33:44.314Z,967.05
2016-09-10T04:34:44.265Z,967.07
2016-09-10T04:35:44.253Z,967.06
2016-09-10T04:36:44.186Z,967.07
2016-09-10T04:37:44.154Z,967.11
2016-09-10T04:38:44.126Z,967.14
2016-09-10T04:39:44.093Z,967.13
2016-09-10T04:40:44.065Z,967.15
2016-09-10T04:41:44.022Z,967.17
2016-09-10T04:42:43.987Z,967.22
2016-09-10T04:43:43.961Z,967.19
2016-09-10T04:44:43.922Z,967.2
2016-09-10T04:45:43.889Z,967.23
2016-09-10T04:46:43.859Z,967.23
2016-09-10T04:47:43.835Z,967.23
2016-09-10T04:48:43.804Z,967.27
2016-09-10T04:49:43.757Z,967.27
2016-09-10T04:50:43.725Z,967.27
2016-09-10T04:51:43.689Z,967.29
2016-09-10T04:52:43.658Z,967.27
2016-09-10T04:53:43.624Z,967.29
2016-09-10T04:54:43.592Z,967.29
2016-09-10T04:55:43.565Z,967.27
2016-09-10T04:56:43.525Z,967.27
2016-09-10T04:57:43.523Z,967.33
2016-09-10T04:58:43.476Z,967.34
2016-09-10T04:59:43.428Z,967.34
2016-09-10T05:00:43.392Z,967.36
2016-09-10T05:01:43.361Z,967.34
2016-09-10T05:02:43.326Z,967.38
2016-09-10T05:03:43.298Z,967.39
2016-09-10T05:04:43.280Z,967.38
2016-09-10T05:05:43.227Z,967.38
2016-09-10T05:06:43.192Z,967.37
2016-09-10T05:07:43.169Z,967.31
2016-09-10T05:08:43.127Z,967.32
2016-09-10T05:09:43.100Z,967.31
2016-09-10T05:10:43.065Z,967.32
2016-09-10T05:11:43.029Z,967.28
2016-09-10T05:12:42.998Z,967.35
2016-09-10T05:13:42.965Z,967.3
2016-09-10T05:14:42.930Z,967.28
2016-09-10T05:15:42.898Z,967.34
2016-09-10T05:16:42.872Z,967.33
2016-09-10T05:17:42.832Z,967.33
2016-09-10T05:18:42.798Z,967.35
2016-09-10T05:19:42.834Z,967.32
2016-09-10T05:20:42.731Z,967.3
2016-09-10T05:21:42.698Z,967.37
2016-09-10T05:22:42.784Z,967.35
2016-09-10T05:23:42.634Z,967.35
2016-09-10T05:24:42.599Z,967.31
2016-09-10T05:25:42.571Z,967.3
2016-09-10T05:26:42.532Z,967.33
2016-09-10T05:27:42.503Z,967.35
2016-09-10T05:28:42.468Z,967.34
2016-09-10T05:29:42.444Z,967.37
2016-09-10T05:30:42.404Z,967.4
2016-09-10T05:31:42.374Z,967.37
2016-09-10T05:32:42.339Z,967.34
2016-09-10T05:33:42.362Z,967.33
2016-09-10T05:34:42.271Z,967.3
2016-09-10T05:35:42.239Z,967.33
2016-09-10T05:36:42.204Z,967.33
2016-09-10T05:37:42.173Z,967.29
2016-09-10T05:38:42.138Z,967.33
2016-09-10T05:39:42.107Z,967.36
2016-09-10T05:40:42.076Z,967.31
2016-09-10T05:41:42.042Z,967.33
2016-09-10T05:42:42.010Z,967.32
2016-09-10T05:43:41.979Z,967.32
2016-09-10T05:44:41.942Z,967.34
2016-09-10T05:45:41.910Z,967.33
2016-09-10T05:46:41.879Z,967.31
2016-09-10T05:47:41.846Z,967.34
2016-09-10T05:48:41.812Z,967.32
2016-09-10T05:49:41.783Z,967.28
2016-09-10T05:50:41.753Z,967.34
2016-09-10T05:51:41.718Z,967.36
2016-09-10T05:52:41.686Z,967.38
2016-09-10T05:53:41.652Z,967.36
2016-09-10T05:54:41.622Z,967.29
2016-09-10T05:55:41.610Z,967.33
2016-09-10T05:56:41.929Z,967.31
2016-09-10T05:57:41.529Z,967.28
2016-09-10T05:58:41.498Z,967.32
2016-09-10T05:59:41.466Z,967.34
2016-09-10T06:00:41.434Z,967.36
2016-09-10T06:01:41.410Z,967.35
2016-09-10T06:02:41.381Z,967.34
2016-09-10T06:03:41.346Z,967.32
2016-09-10T06:04:41.317Z,967.37
2016-09-10T06:05:41.303Z,967.36
2016-09-10T06:06:41.263Z,967.38
2016-09-10T06:07:41.229Z,967.4
2016-09-10T06:08:41.201Z,967.43
2016-09-10T06:09:41.175Z,967.44
2016-09-10T06:10:41.142Z,967.38
2016-09-10T06:11:41.108Z,967.43
2016-09-10T06:12:41.080Z,967.47
2016-09-10T06:13:41.060Z,967.45
2016-09-10T06:14:41.032Z,967.48
2016-09-10T06:15:40.999Z,967.51
2016-09-10T06:16:40.971Z,967.49
2016-09-10T06:17:40.945Z,967.54
2016-09-10T06:18:40.915Z,967.54
2016-09-10T06:19:40.885Z,967.53
2016-09-10T06:20:40.860Z,967.55
2016-09-10T06:21:40.830Z,967.57
2016-09-10T06:22:40.814Z,967.56
2016-09-10T06:23:40.780Z,967.62
2016-09-10T06:24:40.921Z,967.57
2016-09-10T06:25:40.725Z,967.54
2016-09-10T06:26:40.697Z,967.58
2016-09-10T06:27:40.671Z,967.59
2016-09-10T06:28:40.644Z,967.59
2016-09-10T06:29:40.620Z,967.64
2016-09-10T06:30:40.596Z,967.59
2016-09-10T06:31:40.567Z,967.62
2016-09-10T06:32:40.561Z,967.64
2016-09-10T06:33:40.519Z,967.62
2016-09-10T06:34:40.494Z,967.65
2016-09-10T06:35:40.476Z,967.64
2016-09-10T06:36:40.443Z,967.62
2016-09-10T06:37:40.418Z,967.68
2016-09-10T06:38:40.396Z,967.66
2016-09-10T06:39:40.413Z,967.71
2016-09-10T06:40:40.343Z,967.71
2016-09-10T06:41:40.329Z,967.68
2016-09-10T06:42:40.293Z,967.65
2016-09-10T06:43:40.272Z,967.68
2016-09-10T06:44:40.246Z,967.7
2016-09-10T06:45:40.220Z,967.71
2016-09-10T06:46:40.199Z,967.71
2016-09-10T06:47:40.182Z,967.74
2016-09-10T06:48:40.151Z,967.71
2016-09-10T06:49:40.127Z,967.71
2016-09-10T06:50:40.112Z,967.77
2016-09-10T06:51:40.113Z,967.74
2016-09-10T06:52:40.060Z,967.78
2016-09-10T06:53:40.038Z,967.79
2016-09-10T06:54:40.010Z,967.79
2016-09-10T06:55:39.993Z,967.75
2016-09-10T06:56:39.963Z,967.78
2016-09-10T06:57:39.940Z,967.8
2016-09-10T06:58:39.923Z,967.8
2016-09-10T06:59:39.895Z,967.81
2016-09-10T07:00:39.874Z,967.77
2016-09-10T07:01:39.858Z,967.78
2016-09-10T07:02:39.829Z,967.85
2016-09-10T07:03:39.806Z,967.86
2016-09-10T07:04:39.790Z,967.85
2016-09-10T07:05:39.764Z,967.9
2016-09-10T07:06:39.742Z,967.88
2016-09-10T07:07:39.722Z,967.87
2016-09-10T07:08:39.702Z,967.9
2016-09-10T07:09:39.810Z,967.89
2016-09-10T07:10:39.658Z,967.88
2016-09-10T07:11:39.640Z,967.86
2016-09-10T07:12:39.616Z,967.89
2016-09-10T07:13:39.597Z,967.85
2016-09-10T07:14:39.574Z,967.85
2016-09-10T07:15:39.554Z,967.89
2016-09-10T07:16:39.572Z,967.89
2016-09-10T07:17:39.511Z,967.88
2016-09-10T07:18:39.490Z,967.9
2016-09-10T07:19:39.470Z,967.89
2016-09-10T07:20:39.452Z,967.89
2016-09-10T07:21:39.430Z,967.86
2016-09-10T07:22:39.419Z,967.9
2016-09-10T07:23:39.395Z,967.92
2016-09-10T07:24:39.374Z,967.9
2016-09-10T07:25:39.349Z,967.91
2016-09-10T07:26:39.329Z,967.9
2016-09-10T07:27:39.310Z,967.91
2016-09-10T07:28:39.374Z,967.9
2016-09-10T07:29:39.270Z,967.9
2016-09-10T07:30:39.251Z,967.91
2016-09-10T07:31:39.241Z,967.92
2016-09-10T07:32:39.233Z,967.96
2016-09-10T07:33:39.196Z,967.95
2016-09-10T07:34:39.182Z,967.99
2016-09-10T07:35:39.156Z,967.99
2016-09-10T07:36:39.134Z,968.04
2016-09-10T07:37:39.118Z,968.08
2016-09-10T07:38:39.095Z,968.1
2016-09-10T07:39:39.077Z,968.11
2016-09-10T07:40:39.067Z,968.06
2016-09-10T07:41:39.040Z,968.07
2016-09-10T07:42:39.184Z,968.04
2016-09-10T07:43:39.281Z,968.06
2016-09-10T07:44:38.986Z,968.07
2016-09-10T07:45:38.957Z,968.09
2016-09-10T07:46:39.279Z,968.1
2016-09-10T07:47:38.919Z,968.05
2016-09-10T07:48:38.901Z,968.1
2016-09-10T07:49:38.883Z,968.11
2016-09-10T07:50:38.864Z,968.14
2016-09-10T07:51:38.847Z,968.19
2016-09-10T07:52:38.825Z,968.15
2016-09-10T07:53:38.806Z,968.2
2016-09-10T07:54:38.788Z,968.21
2016-09-10T07:55:38.768Z,968.21
2016-09-10T07:56:38.750Z,968.23
2016-09-10T07:57:38.774Z,968.27
2016-09-10T07:58:38.713Z,968.32
2016-09-10T07:59:38.711Z,968.3
2016-09-10T08:00:38.673Z,968.29
2016-09-10T08:01:38.657Z,968.3
2016-09-10T08:02:38.638Z,968.3
2016-09-10T08:03:38.629Z,968.33
2016-09-10T08:04:38.611Z,968.38
2016-09-10T08:05:38.583Z,968.38
2016-09-10T08:06:38.570Z,968.41
2016-09-10T08:07:38.545Z,968.42
2016-09-10T08:08:38.533Z,968.42
2016-09-10T08:09:38.511Z,968.43
2016-09-10T08:10:38.491Z,968.39
2016-09-10T08:11:38.486Z,968.43
2016-09-10T08:12:38.457Z,968.46
2016-09-10T08:13:38.452Z,968.43
2016-09-10T08:14:38.427Z,968.46
2016-09-10T08:15:38.417Z,968.47
2016-09-10T08:16:38.393Z,968.46
2016-09-10T08:17:38.367Z,968.47
2016-09-10T08:18:38.353Z,968.49
2016-09-10T08:19:38.339Z,968.5
2016-09-10T08:20:38.319Z,968.53
2016-09-10T08:21:38.302Z,968.55
2016-09-10T08:22:38.281Z,968.54
2016-09-10T08:23:38.258Z,968.48
2016-09-10T08:24:38.416Z,968.52
2016-09-10T08:25:38.224Z,968.53
2016-09-10T08:26:38.210Z,968.54
2016-09-10T08:27:38.190Z,968.58
2016-09-10T08:28:38.189Z,968.6
2016-09-10T08:29:38.160Z,968.58
2016-09-10T08:30:38.137Z,968.59
2016-09-10T08:31:38.130Z,968.64
2016-09-10T08:32:38.103Z,968.64
2016-09-10T08:33:38.099Z,968.7
2016-09-10T08:34:38.069Z,968.68
2016-09-10T08:35:38.052Z,968.72
2016-09-10T08:36:38.035Z,968.74
2016-09-10T08:37:38.019Z,968.75
2016-09-10T08:38:38.003Z,968.77
2016-09-10T08:39:37.991Z,968.8
2016-09-10T08:40:37.970Z,968.77
2016-09-10T08:41:37.951Z,968.79
2016-09-10T08:42:37.937Z,968.82
2016-09-10T08:43:37.917Z,968.8
2016-09-10T08:44:37.904Z,968.81
2016-09-10T08:45:37.886Z,968.84
2016-09-10T08:46:37.873Z,968.87
2016-09-10T08:47:37.857Z,968.81
2016-09-10T08:48:37.864Z,968.83
2016-09-10T08:49:37.827Z,968.81
2016-09-10T08:50:37.807Z,968.81
2016-09-10T08:51:37.796Z,968.82
2016-09-10T08:52:37.790Z,968.82
2016-09-10T08:53:37.762Z,968.85
2016-09-10T08:54:37.743Z,968.9
2016-09-10T08:55:37.736Z,968.92
2016-09-10T08:56:37.709Z,968.92
2016-09-10T08:57:37.695Z,968.92
2016-09-10T08:58:37.682Z,968.96
2016-09-10T08:59:37.716Z,969.01
2016-09-10T09:00:37.651Z,969.04
2016-09-10T09:01:37.634Z,969.09
2016-09-10T09:02:37.619Z,969.1
2016-09-10T09:03:37.645Z,969.13
2016-09-10T09:04:37.598Z,969.15
2016-09-10T09:05:37.573Z,969.2
2016-09-10T09:06:37.558Z,969.2
2016-09-10T09:07:37.541Z,969.21
2016-09-10T09:08:37.528Z,969.21
2016-09-10T09:09:37.524Z,969.27
2016-09-10T09:10:37.502Z,969.25
2016-09-10T09:11:37.505Z,969.3
2016-09-10T09:12:37.479Z,969.31
2016-09-10T09:13:37.454Z,969.32
2016-09-10T09:14:37.440Z,969.3
2016-09-10T09:15:37.423Z,969.35
2016-09-10T09:16:37.411Z,969.4
2016-09-10T09:17:37.566Z,969.37
2016-09-10T09:18:37.396Z,969.41
2016-09-10T09:19:37.367Z,969.43
2016-09-10T09:20:37.369Z,969.43
2016-09-10T09:21:37.336Z,969.47
2016-09-10T09:22:37.320Z,969.47
2016-09-10T09:23:37.306Z,969.44
2016-09-10T09:24:37.303Z,969.43
2016-09-10T09:25:37.277Z,969.4
2016-09-10T09:26:37.263Z,969.36
2016-09-10T09:27:37.266Z,969.37
2016-09-10T09:28:37.233Z,969.29
2016-09-10T09:29:37.257Z,969.19
2016-09-10T09:30:37.204Z,969
2016-09-10T09:31:37.186Z,968.78
2016-09-10T09:32:37.192Z,968.7
2016-09-10T09:33:37.153Z,968.61
2016-09-10T09:34:37.142Z,968.61
2016-09-10T09:35:37.147Z,968.57
2016-09-10T09:36:37.115Z,968.57
2016-09-10T09:37:37.112Z,968.52
2016-09-10T09:38:37.083Z,968.48
2016-09-10T09:39:37.086Z,968.44
2016-09-10T09:40:37.050Z,968.45
2016-09-10T09:41:37.036Z,968.39
2016-09-10T09:42:37.038Z,968.38
2016-09-10T09:43:37.005Z,968.38
2016-09-10T09:44:36.989Z,968.34
2016-09-10T09:45:36.977Z,968.3
2016-09-10T09:46:36.964Z,968.3
2016-09-10T09:47:36.948Z,968.28
2016-09-10T09:48:36.932Z,968.24
2016-09-10T09:49:36.914Z,968.23
2016-09-10T09:50:36.900Z,968.25
2016-09-10T09:51:36.886Z,968.22
2016-09-10T09:52:36.868Z,968.2
2016-09-10T09:53:36.854Z,968.29
2016-09-10T09:54:36.856Z,968.54
2016-09-10T09:55:36.824Z,969.01
2016-09-10T09:56:36.816Z,969.1
2016-09-10T09:57:36.794Z,969.13
2016-09-10T09:58:36.788Z,969.08
2016-09-10T09:59:36.776Z,969.15
2016-09-10T10:00:36.999Z,969.08
2016-09-10T10:01:36.735Z,969.08
2016-09-10T10:02:36.851Z,969
2016-09-10T10:03:36.727Z,969.03
2016-09-10T10:04:36.709Z,969.04
2016-09-10T10:05:36.680Z,968.99
2016-09-10T10:06:36.671Z,968.96
2016-09-10T10:07:36.649Z,969.01
2016-09-10T10:08:36.635Z,969.02
2016-09-10T10:09:36.621Z,968.98
2016-09-10T10:10:36.611Z,968.99
2016-09-10T10:11:36.592Z,968.96
2016-09-10T10:12:36.604Z,969.03
2016-09-10T10:13:36.563Z,969.02
2016-09-10T10:14:36.566Z,969.01
2016-09-10T10:15:36.547Z,969.01
2016-09-10T10:16:36.547Z,968.99
2016-09-10T10:17:36.510Z,969.03
2016-09-10T10:18:36.512Z,969.11
2016-09-10T10:19:36.596Z,969.13
2016-09-10T10:20:36.464Z,969.07
2016-09-10T10:21:36.450Z,969.13
2016-09-10T10:22:36.458Z,969.14
2016-09-10T10:23:36.420Z,969.12
2016-09-10T10:24:36.632Z,969.16
2016-09-10T10:25:36.391Z,969.2
2016-09-10T10:26:36.384Z,969.22
2016-09-10T10:27:36.363Z,969.25
2016-09-10T10:28:36.351Z,969.25
2016-09-10T10:29:36.339Z,969.27
2016-09-10T10:30:36.321Z,969.34
2016-09-10T10:31:36.312Z,969.42
2016-09-10T10:32:36.293Z,969.44
2016-09-10T10:33:36.279Z,969.59
2016-09-10T10:34:36.268Z,969.74
2016-09-10T10:35:36.250Z,969.85
2016-09-10T10:36:36.235Z,970
2016-09-10T10:37:36.225Z,970.05
2016-09-10T10:38:36.208Z,970.18
2016-09-10T10:39:36.193Z,970.15
2016-09-10T10:40:36.198Z,969.14
2016-09-10T10:41:36.167Z,968.46
2016-09-10T10:42:36.159Z,968.41
2016-09-10T10:43:36.133Z,968.31
2016-09-10T10:44:36.117Z,968.24
2016-09-10T10:45:36.106Z,968.23
2016-09-10T10:46:36.086Z,968.23
2016-09-10T10:47:36.070Z,968.21
2016-09-10T10:48:36.058Z,968.2
2016-09-10T10:49:36.035Z,968.13
2016-09-10T10:50:36.022Z,968.12
2016-09-10T10:51:36.001Z,968.09
2016-09-10T10:52:35.985Z,968.04
2016-09-10T10:53:35.966Z,968.05
2016-09-10T10:54:35.948Z,968.05
2016-09-10T10:55:35.936Z,968.02
2016-09-10T10:56:35.913Z,967.93
2016-09-10T10:57:35.903Z,967.98
2016-09-10T10:58:35.880Z,968.45
2016-09-10T10:59:35.862Z,968.57
2016-09-10T11:00:35.853Z,968.49
2016-09-10T11:01:35.829Z,968.5
2016-09-10T11:02:35.809Z,968.49
2016-09-10T11:03:35.796Z,968.51
2016-09-10T11:04:35.799Z,968.51
2016-09-10T11:05:35.764Z,968.42
2016-09-10T11:06:35.752Z,968.35
2016-09-10T11:07:35.720Z,968.33
2016-09-10T11:08:35.703Z,968.35
2016-09-10T11:09:35.687Z,968.22
2016-09-10T11:10:35.670Z,967.91
2016-09-10T11:11:35.667Z,967.8
2016-09-10T11:12:35.646Z,967.73
2016-09-10T11:13:35.614Z,967.69
2016-09-10T11:14:35.597Z,967.65
2016-09-10T11:15:35.578Z,967.61
2016-09-10T11:16:35.556Z,967.57
2016-09-10T11:17:35.539Z,967.46
2016-09-10T11:18:35.517Z,967.37
2016-09-10T11:19:35.500Z,967.3
2016-09-10T11:20:35.481Z,967.3
2016-09-10T11:21:35.461Z,967.27
2016-09-10T11:22:35.440Z,967.23
2016-09-10T11:23:35.433Z,967.27
2016-09-10T11:24:35.406Z,967.24
2016-09-10T11:25:35.392Z,967.27
2016-09-10T11:26:35.365Z,967.22
2016-09-10T11:27:35.350Z,967.24
2016-09-10T11:28:35.328Z,967.21
2016-09-10T11:29:35.488Z,967.07
2016-09-10T11:30:35.281Z,967.05
2016-09-10T11:31:35.261Z,966.97
2016-09-10T11:32:35.242Z,966.94
2016-09-10T11:33:35.227Z,967
2016-09-10T11:34:35.197Z,966.97
2016-09-10T11:35:35.184Z,966.93
2016-09-10T11:36:35.156Z,966.93
2016-09-10T11:37:35.137Z,966.9
2016-09-10T11:38:35.109Z,966.86
2016-09-10T11:39:35.092Z,966.9
2016-09-10T11:40:35.068Z,966.86
2016-09-10T11:41:35.055Z,966.88
2016-09-10T11:42:35.027Z,966.84
2016-09-10T11:43:35.007Z,966.83
2016-09-10T11:44:34.979Z,966.84
2016-09-10T11:45:34.951Z,966.8
2016-09-10T11:46:34.929Z,966.79
2016-09-10T11:47:34.917Z,966.79
2016-09-10T11:48:34.883Z,966.79
2016-09-10T11:49:34.859Z,966.79
2016-09-10T11:50:35.015Z,966.83
2016-09-10T11:51:34.814Z,966.79
2016-09-10T11:52:34.789Z,966.8
2016-09-10T11:53:34.771Z,966.77
2016-09-10T11:54:34.744Z,966.8
2016-09-10T11:55:34.717Z,966.75
2016-09-10T11:56:34.697Z,966.72
2016-09-10T11:57:34.669Z,966.63
2016-09-10T11:58:34.655Z,966.63
2016-09-10T11:59:34.619Z,966.62
2016-09-10T12:00:34.596Z,966.62
2016-09-10T12:01:34.572Z,966.62
2016-09-10T12:02:34.577Z,966.6
2016-09-10T12:03:34.523Z,966.55
2016-09-10T12:04:34.508Z,966.56
2016-09-10T12:05:34.476Z,966.58
2016-09-10T12:06:34.447Z,966.52
2016-09-10T12:07:34.424Z,966.57
2016-09-10T12:08:34.413Z,966.54
2016-09-10T12:09:34.383Z,966.49
2016-09-10T12:10:34.360Z,966.47
2016-09-10T12:11:34.325Z,966.46
2016-09-10T12:12:34.306Z,966.46
2016-09-10T12:13:34.280Z,966.48
2016-09-10T12:14:34.252Z,966.46
2016-09-10T12:15:34.229Z,966.44
2016-09-10T12:16:34.603Z,966.43
2016-09-10T12:17:34.176Z,966.46
2016-09-10T12:18:34.149Z,966.43
2016-09-10T12:19:34.149Z,966.41
2016-09-10T12:20:34.102Z,966.42
2016-09-10T12:21:34.078Z,966.39
2016-09-10T12:22:34.059Z,966.4
2016-09-10T12:23:34.025Z,966.4
2016-09-10T12:24:33.999Z,966.37
2016-09-10T12:25:33.971Z,966.32
2016-09-10T12:26:33.947Z,966.28
2016-09-10T12:27:33.921Z,966.28
2016-09-10T12:28:33.895Z,966.33
2016-09-10T12:29:33.868Z,966.3
2016-09-10T12:30:33.843Z,966.34
2016-09-10T12:31:33.821Z,966.39